Time;durP1;ratioP1;P1;durP2;ratioP2;P2;SDS_P1;SDS_P2;PMS_P1;PMS_P2;Temp;Humidity;BMP_temperature;BMP_pressure;BME280_temperature;BME280_humidity;BME280_pressure;Samples;Min_cycle;Max_cycle;Signal;HPM_P1;HPM_P2
2022/07/10 00:01:25;;;;;;;;;2.00;2.00;;;;;18.84;100.00;102189.19;5015033;28;45373;-77
2022/07/10 00:03:51;;;;;;;;;1.33;1.33;;;;;18.98;100.00;102212.16;5019193;28;45411;-76
2022/07/10 00:06:17;;;;;;;;;2.00;2.00;;;;;18.93;100.00;102210.06;5004504;28;46165;-75
2022/07/10 00:08:42;;;;;;;;;3.00;3.00;;;;;18.71;100.00;102179.03;5031258;28;45556;-82
2022/07/10 00:11:08;;;;;;;;;2.00;2.00;;;;;18.92;100.00;102210.31;5031062;28;45362;-81
2022/07/10 00:13:34;;;;;;;;;4.67;2.00;;;;;18.77;100.00;102193.97;5013727;28;45574;-82
2022/07/10 00:16:01;;;;;;;;;3.00;2.00;;;;;18.81;100.00;102206.31;5039416;28;45419;-75
2022/07/10 00:18:28;;;;;;;;;2.33;2.33;;;;;18.77;100.00;102199.50;5025210;28;46470;-76
2022/07/10 00:20:53;;;;;;;;;2.00;2.00;;;;;18.79;100.00;102220.44;5033805;28;45822;-83
2022/07/10 00:23:19;;;;;;;;;2.00;2.00;;;;;18.65;100.00;102191.94;5032340;28;45881;-81
2022/07/10 00:25:44;;;;;;;;;1.00;1.00;;;;;18.57;100.00;102189.44;5039952;28;45919;-81
2022/07/10 00:28:11;;;;;;;;;1.00;1.00;;;;;18.63;100.00;102198.78;5031833;28;45178;-83
2022/07/10 00:30:36;;;;;;;;;2.67;2.67;;;;;18.68;100.00;102215.63;5036220;28;45430;-80
2022/07/10 00:33:02;;;;;;;;;2.00;2.00;;;;;18.68;100.00;102218.41;5033488;28;45363;-82
2022/07/10 00:35:28;;;;;;;;;2.00;2.00;;;;;18.65;100.00;102218.84;5030298;28;45356;-82
2022/07/10 00:37:53;;;;;;;;;2.33;2.33;;;;;18.57;100.00;102208.03;5034894;28;46256;-81
2022/07/10 00:40:19;;;;;;;;;3.33;2.00;;;;;18.62;100.00;102219.31;5033638;28;45291;-83
2022/07/10 00:42:45;;;;;;;;;3.00;2.00;;;;;18.53;100.00;102210.41;5032193;28;45698;-81
2022/07/10 00:45:11;;;;;;;;;1.00;1.00;;;;;18.50;100.00;102228.41;5031803;28;45881;-81
2022/07/10 00:47:37;;;;;;;;;3.33;2.33;;;;;18.45;100.00;102214.31;5022458;28;45530;-80
2022/07/10 00:50:03;;;;;;;;;3.00;3.00;;;;;18.45;100.00;102219.88;5018999;28;45526;-83
2022/07/10 00:52:30;;;;;;;;;5.00;4.00;;;;;18.34;100.00;102199.25;5018701;28;45403;-81
2022/07/10 00:54:56;;;;;;;;;3.00;3.00;;;;;18.35;100.00;102200.94;5033431;28;45459;-81
2022/07/10 00:57:23;;;;;;;;;3.00;3.00;;;;;18.32;100.00;102206.97;5021360;28;47730;-82
2022/07/10 00:59:49;;;;;;;;;3.00;2.00;;;;;18.28;100.00;102205.69;5022311;28;46075;-81
2022/07/10 01:02:16;;;;;;;;;3.00;2.00;;;;;18.32;100.00;102211.63;5032200;28;45768;-82
2022/07/10 01:04:41;;;;;;;;;2.33;2.33;;;;;18.32;100.00;102214.41;5038759;28;45424;-81
2022/07/10 01:07:07;;;;;;;;;2.00;2.00;;;;;18.29;100.00;102212.09;5021827;28;46194;-81
2022/07/10 01:09:34;;;;;;;;;1.00;1.00;;;;;18.15;100.00;102201.06;5007403;28;45614;-81
2022/07/10 01:12:01;;;;;;;;;4.67;2.33;;;;;18.17;100.00;102212.81;5032464;28;45697;-81
2022/07/10 01:14:28;;;;;;;;;2.00;2.00;;;;;18.14;100.00;102202.16;5026224;28;45364;-81
2022/07/10 01:16:54;;;;;;;;;1.00;1.00;;;;;18.12;100.00;102212.63;5017106;28;47350;-82
2022/07/10 01:19:20;;;;;;;;;2.33;1.67;;;;;18.10;100.00;102206.47;5037926;28;45718;-81
2022/07/10 01:21:45;;;;;;;;;2.67;2.67;;;;;18.00;100.00;102212.50;5037651;28;45763;-81
2022/07/10 01:24:11;;;;;;;;;2.00;2.00;;;;;18.00;100.00;102206.09;5023138;28;45469;-82
2022/07/10 01:26:37;;;;;;;;;2.00;2.00;;;;;18.00;100.00;102217.19;5026793;28;45880;-81
2022/07/10 01:29:05;;;;;;;;;3.00;2.00;;;;;17.98;100.00;102214.66;5025733;28;45431;-81
2022/07/10 01:31:31;;;;;;;;;3.00;2.67;;;;;17.97;100.00;102209.31;5022556;28;45476;-82
2022/07/10 01:33:58;;;;;;;;;2.00;2.00;;;;;17.93;100.00;102213.59;5034811;28;45755;-73
2022/07/10 01:36:24;;;;;;;;;2.00;2.00;;;;;17.90;100.00;102222.38;5013323;28;47080;-73
2022/07/10 01:38:54;;;;;;;;;2.00;2.00;;;;;17.84;100.00;102221.31;5016002;28;45451;-73
2022/07/10 01:41:19;;;;;;;;;3.00;3.00;;;;;17.81;100.00;102230.06;5009409;28;45717;-72
2022/07/10 01:43:45;;;;;;;;;2.00;2.00;;;;;17.74;100.00;102221.78;5003735;28;45985;-74
2022/07/10 01:46:12;;;;;;;;;3.00;2.33;;;;;17.73;100.00;102222.84;5022945;28;45452;-81
2022/07/10 01:48:41;;;;;;;;;4.33;1.00;;;;;17.66;100.00;102222.03;5011139;28;45853;-80
2022/07/10 01:51:07;;;;;;;;;3.00;2.33;;;;;17.61;100.00;102217.16;5037946;28;45556;-81
2022/07/10 01:53:33;;;;;;;;;1.33;1.33;;;;;17.52;100.00;102218.47;5028185;28;45752;-74
2022/07/10 01:56:02;;;;;;;;;3.00;2.00;;;;;17.49;100.00;102216.13;5018889;28;45557;-74
2022/07/10 01:58:28;;;;;;;;;1.67;1.00;;;;;17.46;100.00;102216.56;5032370;28;45612;-73
2022/07/10 02:00:53;;;;;;;;;5.00;3.33;;;;;17.39;100.00;102222.13;5026910;28;45893;-73
2022/07/10 02:06:03;;;;;;;;;3.33;1.67;;;;;17.33;100.00;102228.56;5026623;28;45533;-74
2022/07/10 02:08:28;;;;;;;;;2.67;2.67;;;;;17.27;100.00;102234.97;5029299;28;45699;-80
2022/07/10 02:10:54;;;;;;;;;2.00;2.00;;;;;17.24;100.00;102235.41;5034307;28;45465;-80
2022/07/10 02:13:20;;;;;;;;;3.00;2.67;;;;;17.17;100.00;102240.09;5028744;28;45635;-82
2022/07/10 02:15:49;;;;;;;;;3.33;2.33;;;;;17.13;100.00;102233.31;5033151;28;45449;-81
2022/07/10 02:18:15;;;;;;;;;1.00;1.00;;;;;17.08;100.00;102236.72;5026808;28;45769;-81
2022/07/10 02:20:40;;;;;;;;;3.33;2.67;;;;;17.03;100.00;102234.59;5007323;28;45402;-82
2022/07/10 02:23:06;;;;;;;;;4.33;3.00;;;;;17.04;100.00;102227.16;5006561;28;45538;-82
2022/07/10 02:25:33;;;;;;;;;4.33;3.00;;;;;17.01;100.00;102225.66;5003886;28;46153;-74
2022/07/10 02:27:59;;;;;;;;;3.00;3.00;;;;;16.97;100.00;102215.22;5032689;28;45659;-74
2022/07/10 02:30:25;;;;;;;;;3.33;2.00;;;;;16.92;100.00;102218.63;5030046;28;45692;-82
2022/07/10 02:32:50;;;;;;;;;2.00;2.00;;;;;16.81;100.00;102199.84;5036518;28;45548;-74
2022/07/10 02:35:15;;;;;;;;;3.67;2.67;;;;;16.81;100.00;102205.38;5032688;28;45941;-74
2022/07/10 02:37:41;;;;;;;;;3.00;3.00;;;;;16.80;100.00;102217.56;5013174;28;45607;-75
2022/07/10 02:40:07;;;;;;;;;6.00;4.00;;;;;16.70;100.00;102206.88;4997273;28;45764;-74
2022/07/10 02:42:33;;;;;;;;;5.67;3.33;;;;;16.57;100.00;102188.34;5035565;28;45870;-72
2022/07/10 02:44:58;;;;;;;;;3.00;3.00;;;;;16.68;100.00;102209.03;5028289;28;45956;-73
2022/07/10 02:47:23;;;;;;;;;3.67;2.33;;;;;16.68;100.00;102204.34;5013659;28;45471;-73
2022/07/10 02:49:49;;;;;;;;;2.67;2.00;;;;;16.66;100.00;102202.84;5002803;28;45415;-79
2022/07/10 02:52:14;;;;;;;;;2.00;2.00;;;;;16.65;100.00;102204.75;5024832;28;45386;-80
2022/07/10 02:54:39;;;;;;;;;3.00;3.00;;;;;16.66;100.00;102211.16;5035496;28;46085;-81
2022/07/10 02:57:05;;;;;;;;;5.67;3.00;;;;;16.66;100.00;102208.38;5019682;28;45450;-73
2022/07/10 02:59:30;;;;;;;;;3.00;3.00;;;;;16.66;100.00;102206.47;5023036;28;45573;-74
2022/07/10 03:01:56;;;;;;;;;2.67;2.33;;;;;16.62;100.00;102204.31;5012861;28;45975;-74
2022/07/10 03:04:22;;;;;;;;;2.00;2.00;;;;;16.59;100.00;102209.22;5022557;28;46075;-73
2022/07/10 03:06:47;;;;;;;;;3.00;2.00;;;;;16.59;100.00;102211.16;5014069;28;45867;-73
2022/07/10 03:09:12;;;;;;;;;2.33;2.33;;;;;16.59;100.00;102203.69;5025118;28;45772;-72
2022/07/10 03:11:38;;;;;;;;;3.33;3.33;;;;;16.47;100.00;102190.72;5023180;28;45512;-80
2022/07/10 03:14:05;;;;;;;;;3.00;2.00;;;;;16.58;100.00;102203.91;5054202;28;46552;-73
2022/07/10 03:16:30;;;;;;;;;6.00;4.00;;;;;16.57;100.00;102203.06;5012120;28;45598;-72
2022/07/10 03:18:55;;;;;;;;;6.00;3.00;;;;;16.57;100.00;102211.38;5036265;28;45323;-74
2022/07/10 03:21:21;;;;;;;;;2.33;2.33;;;;;16.52;100.00;102205.59;5013065;28;45721;-73
2022/07/10 03:23:46;;;;;;;;;3.00;2.00;;;;;16.46;100.00;102202.84;5027381;28;45405;-73
2022/07/10 03:26:12;;;;;;;;;5.67;4.00;;;;;16.32;100.00;102175.16;5013960;28;45743;-75
2022/07/10 03:28:37;;;;;;;;;3.00;3.00;;;;;16.45;100.00;102209.44;5028081;28;45782;-74
2022/07/10 03:31:02;;;;;;;;;4.00;3.00;;;;;16.39;100.00;102198.16;5031548;28;45865;-80
2022/07/10 03:33:28;;;;;;;;;3.00;3.00;;;;;16.38;100.00;102196.44;5016515;28;45238;-73
2022/07/10 03:35:54;;;;;;;;;2.67;2.67;;;;;16.39;100.00;102198.16;5009771;28;45442;-81
2022/07/10 03:38:20;;;;;;;;;3.33;3.33;;;;;16.32;100.00;102189.00;5032206;28;45391;-82
2022/07/10 03:40:47;;;;;;;;;2.33;2.33;;;;;16.35;100.00;102190.50;5034985;28;45457;-81
2022/07/10 03:43:13;;;;;;;;;3.00;3.00;;;;;16.34;100.00;102191.56;5023947;28;47623;-74
2022/07/10 03:45:39;;;;;;;;;3.00;3.00;;;;;16.29;100.00;102194.09;5032674;28;45374;-74
2022/07/10 03:48:04;;;;;;;;;4.00;4.00;;;;;16.26;100.00;102184.31;5017122;28;45700;-74
2022/07/10 03:50:30;;;;;;;;;5.67;4.00;;;;;16.09;100.00;102171.94;5025237;28;45917;-73
2022/07/10 03:52:55;;;;;;;;;4.00;4.00;;;;;16.23;100.00;102199.41;5027234;28;46104;-73
2022/07/10 03:55:21;;;;;;;;;4.33;4.33;;;;;16.17;100.00;102186.44;5024091;28;45875;-81
2022/07/10 03:58:02;;;;;;;;;4.00;3.00;;;;;16.22;100.00;102194.09;5026474;28;45809;-80
2022/07/10 04:00:28;;;;;;;;;3.00;2.00;;;;;16.22;100.00;102197.69;5027267;28;45590;-73
2022/07/10 04:03:03;;;;;;;;;3.00;3.00;;;;;16.24;100.00;102197.50;5011398;28;48112;-73
2022/07/10 04:05:30;;;;;;;;;3.67;2.33;;;;;16.33;100.00;102201.78;4999854;28;45497;-73
2022/07/10 04:07:57;;;;;;;;;2.67;2.67;;;;;16.45;100.00;102199.22;5026603;28;45859;-73
2022/07/10 04:10:23;;;;;;;;;2.33;2.00;;;;;16.50;100.00;102173.66;4998639;28;46029;-74
2022/07/10 04:12:49;;;;;;;;;5.67;5.67;;;;;16.89;100.00;102202.44;5032706;28;47359;-80
2022/07/10 04:15:15;;;;;;;;;4.00;3.67;;;;;17.21;100.00;102191.47;5023109;28;45501;-80
2022/07/10 04:17:40;;;;;;;;;3.00;3.00;;;;;17.56;100.00;102192.00;5036426;28;45858;-80
2022/07/10 04:20:07;;;;;;;;;3.33;2.00;;;;;17.90;100.00;102194.63;5035176;28;45466;-80
2022/07/10 04:22:32;;;;;;;;;4.00;4.00;;;;;18.30;100.00;102188.81;5019485;28;45469;-71
2022/07/10 04:24:58;;;;;;;;;4.67;3.33;;;;;18.65;100.00;102185.50;5018747;28;45388;-74
2022/07/10 04:27:23;;;;;;;;;3.33;3.33;;;;;18.98;100.00;102173.25;5020827;28;45660;-80
2022/07/10 04:29:49;;;;;;;;;2.33;2.33;;;;;19.30;100.00;102179.53;5028438;28;45903;-80
2022/07/10 04:32:15;;;;;;;;;2.33;2.00;;;;;19.68;100.00;102175.59;5038389;28;45521;-80
2022/07/10 04:34:41;;;;;;;;;4.00;3.00;;;;;20.11;100.00;102179.31;5013783;28;46148;-79
2022/07/10 04:37:09;;;;;;;;;2.00;2.00;;;;;20.53;100.00;102168.09;5039879;28;45479;-82
2022/07/10 04:39:37;;;;;;;;;3.00;3.00;;;;;20.94;100.00;102157.09;5039194;28;45750;-81
2022/07/10 04:42:03;;;;;;;;;3.00;3.00;;;;;21.47;100.00;102177.50;5038650;28;45424;-82
2022/07/10 04:44:29;;;;;;;;;3.00;3.00;;;;;21.82;100.00;102159.78;5013598;28;46062;-73
2022/07/10 04:46:54;;;;;;;;;5.00;3.67;;;;;22.17;100.00;102170.78;5022044;28;45112;-81
2022/07/10 04:49:20;;;;;;;;;3.67;3.67;;;;;22.58;100.00;102167.84;5017503;28;45911;-80
2022/07/10 04:51:48;;;;;;;;;2.00;2.00;;;;;23.00;100.00;102155.34;5038768;28;45800;-80
2022/07/10 04:54:13;;;;;;;;;3.67;3.00;;;;;23.48;100.00;102162.13;5030294;28;45424;-80
2022/07/10 04:56:39;;;;;;;;;2.33;2.33;;;;;23.84;100.00;102175.72;5030876;28;46299;-75
2022/07/10 04:59:04;;;;;;;;;1.00;1.00;;;;;24.23;100.00;102155.94;5016864;28;45662;-73
2022/07/10 05:01:30;;;;;;;;;4.67;2.67;;;;;24.79;100.00;102150.78;5022692;28;45592;-83
2022/07/10 05:03:55;;;;;;;;;2.67;2.67;;;;;25.23;97.69;102154.41;5037818;28;45431;-81
2022/07/10 05:06:21;;;;;;;;;2.67;2.67;;;;;25.63;92.82;102162.16;5038132;28;45387;-80
2022/07/10 05:08:46;;;;;;;;;3.00;3.00;;;;;26.06;90.18;102161.97;5023886;28;47076;-83
2022/07/10 05:11:12;;;;;;;;;3.00;3.00;;;;;26.59;85.74;102162.53;5026179;28;48147;-85
2022/07/10 05:13:38;;;;;;;;;3.67;3.00;;;;;27.00;80.65;102156.00;5026750;28;45753;-80
2022/07/10 05:16:06;;;;;;;;;4.00;3.00;;;;;27.37;76.65;102163.22;5028260;28;45487;-72
2022/07/10 05:18:31;;;;;;;;;3.25;3.25;;;;;27.77;72.52;102177.38;5022739;28;45668;-82
2022/07/10 05:20:57;;;;;;;;;2.33;2.33;;;;;27.99;69.87;102182.63;5035796;28;45579;-87
2022/07/10 05:23:23;;;;;;;;;4.67;3.00;;;;;28.17;66.80;102175.47;5030787;28;45414;-77
2022/07/10 05:25:49;;;;;;;;;3.00;3.00;;;;;28.18;66.30;102168.69;5020652;28;45711;-76
2022/07/10 05:28:17;;;;;;;;;4.75;3.00;;;;;28.48;63.51;102184.50;5020028;28;46051;-78
2022/07/10 05:30:43;;;;;;;;;3.00;3.00;;;;;28.30;62.48;102180.44;5037613;28;48439;-77
2022/07/10 05:33:09;;;;;;;;;2.25;2.25;;;;;28.04;61.88;102167.66;5016530;28;45448;-78
2022/07/10 05:35:35;;;;;;;;;4.00;2.75;;;;;28.01;61.98;102183.22;5017276;28;46101;-78
2022/07/10 05:38:01;;;;;;;;;3.00;2.25;;;;;27.95;62.22;102188.00;5022995;28;45752;-77
2022/07/10 05:40:26;;;;;;;;;3.00;2.00;;;;;28.21;61.34;102182.19;5020762;28;45798;-77
2022/07/10 05:42:52;;;;;;;;;3.25;3.00;;;;;28.32;60.38;102171.66;5018994;28;45441;-77
2022/07/10 05:45:17;;;;;;;;;5.75;4.50;;;;;28.66;59.35;102180.13;5016482;28;45591;-77
2022/07/10 05:47:44;;;;;;;;;2.75;2.75;;;;;29.17;56.04;102200.50;5013101;28;45642;-74
2022/07/10 05:50:11;;;;;;;;;8.67;4.33;;;;;29.43;54.11;102183.28;5021163;28;45801;-74
2022/07/10 05:52:50;;;;;;;;;2.00;2.00;;;;;29.85;52.78;102187.22;5024306;28;45564;-82
2022/07/10 05:55:15;;;;;;;;;2.75;2.75;;;;;30.23;50.82;102181.56;5031043;28;45466;-81
2022/07/10 05:57:44;;;;;;;;;2.67;2.67;;;;;30.74;48.56;102180.69;5024110;28;45750;-81
2022/07/10 06:00:10;;;;;;;;;2.67;2.00;;;;;31.06;46.81;102180.97;5020902;28;45839;-79
2022/07/10 06:02:35;;;;;;;;;2.25;2.25;;;;;31.31;45.46;102197.44;5019569;28;45979;-79
2022/07/10 06:05:01;;;;;;;;;4.25;3.50;;;;;31.57;43.81;102196.91;5025695;28;45959;-74
2022/07/10 06:07:27;;;;;;;;;3.00;2.00;;;;;31.83;42.93;102183.00;5019881;28;45876;-73
2022/07/10 06:09:53;;;;;;;;;2.75;2.75;;;;;32.14;42.55;102188.00;5037646;28;45500;-77
2022/07/10 06:12:19;;;;;;;;;1.00;1.00;;;;;32.42;41.10;102182.16;5026155;28;45652;-76
2022/07/10 06:14:44;;;;;;;;;4.00;4.00;;;;;32.62;40.47;102183.66;5040715;28;45421;-75
2022/07/10 06:17:10;;;;;;;;;3.00;3.00;;;;;32.90;39.15;102170.09;5049362;28;46003;-82
2022/07/10 06:19:35;;;;;;;;;1.75;1.75;;;;;33.25;38.00;102177.94;5044706;28;45702;-81
2022/07/10 06:24:45;;;;;;;;;1.75;1.75;;;;;33.41;37.05;102179.16;5046365;28;45626;-81
2022/07/10 06:27:10;;;;;;;;;26.67;22.33;;;;;33.43;36.78;102170.31;5045115;28;46315;-81
2022/07/10 06:29:37;;;;;;;;;3.50;3.00;;;;;33.54;36.27;102177.34;5050504;28;45975;-80
2022/07/10 06:32:03;;;;;;;;;2.50;2.50;;;;;33.66;35.92;102165.31;5030219;28;46479;-79
2022/07/10 06:34:28;;;;;;;;;2.50;2.50;;;;;33.94;35.57;102171.56;5044650;28;45978;-81
2022/07/10 06:36:54;;;;;;;;;2.25;2.00;;;;;34.20;34.73;102173.56;5037978;28;45521;-80
2022/07/10 06:39:20;;;;;;;;;2.50;2.00;;;;;34.59;34.08;102165.97;5044502;28;47724;-81
2022/07/10 06:41:45;;;;;;;;;2.75;2.75;;;;;34.93;33.43;102174.78;5037900;28;45506;-75
2022/07/10 06:44:11;;;;;;;;;2.50;2.25;;;;;35.42;32.41;102169.53;5035843;28;45485;-76
2022/07/10 06:46:36;;;;;;;;;2.00;2.00;;;;;35.95;31.51;102169.16;5025401;28;45861;-74
2022/07/10 06:49:02;;;;;;;;;1.50;1.50;;;;;36.36;30.05;102161.72;5036569;28;45446;-73
2022/07/10 06:51:28;;;;;;;;;1.25;1.25;;;;;36.66;29.34;102170.13;5036139;28;45472;-76
2022/07/10 06:53:55;;;;;;;;;2.75;2.75;;;;;36.89;29.21;102184.88;5043880;28;46052;-77
2022/07/10 06:56:21;;;;;;;;;2.50;1.50;;;;;36.86;28.35;102179.84;5034197;28;46330;-75
2022/07/10 06:58:46;;;;;;;;;2.00;2.00;;;;;36.82;28.21;102170.31;5023654;28;46898;-79
2022/07/10 07:01:11;;;;;;;;;1.00;1.00;;;;;36.98;27.85;102177.00;5044537;28;45491;-80
2022/07/10 07:03:37;;;;;;;;;1.00;1.00;;;;;36.88;27.32;102166.03;5045215;28;45398;-75
2022/07/10 07:06:03;;;;;;;;;1.75;1.75;;;;;37.03;26.82;102176.75;5028278;28;46437;-81
2022/07/10 07:08:30;;;;;;;;;1.00;1.00;;;;;37.26;26.72;102168.59;5040633;28;45669;-72
2022/07/10 07:10:55;;;;;;;;;1.00;1.00;;;;;37.43;26.14;102178.94;5041330;28;45858;-73
2022/07/10 07:13:21;;;;;;;;;1.25;1.00;;;;;37.35;25.69;102179.88;5031831;28;45763;-74
2022/07/10 07:15:54;;;;;;;;;0.25;0.25;;;;;37.19;25.63;102187.47;5035756;28;45699;-79
2022/07/10 07:18:31;;;;;;;;;1.00;1.00;;;;;37.04;25.82;102175.59;5018889;28;46579;-79
2022/07/10 07:23:41;;;;;;;;;4.00;2.25;;;;;37.21;25.81;102179.41;5038864;28;45743;-74
2022/07/10 07:26:06;;;;;;;;;1.75;1.75;;;;;37.75;25.47;102159.06;5029207;28;46157;-81
2022/07/10 07:28:32;;;;;;;;;2.00;1.00;;;;;38.28;24.76;102167.63;5050028;28;45327;-71
2022/07/10 07:30:59;;;;;;;;;1.75;1.75;;;;;38.68;24.52;102162.97;5046119;28;45433;-80
2022/07/10 07:33:25;;;;;;;;;0.75;0.75;;;;;39.02;23.87;102160.59;5040293;28;45535;-73
2022/07/10 07:35:53;;;;;;;;;1.75;1.75;;;;;39.15;23.62;102146.97;5051548;28;45832;-80
2022/07/10 07:38:18;;;;;;;;;1.00;1.00;;;;;39.55;23.55;102151.63;5042037;28;47289;-81
2022/07/10 07:40:44;;;;;;;;;1.75;1.50;;;;;39.81;22.71;102141.50;5040305;28;45354;-74
2022/07/10 07:43:09;;;;;;;;;1.00;1.00;;;;;40.16;22.60;102135.69;5039779;28;45885;-72
2022/07/10 07:45:35;;;;;;;;;1.00;1.00;;;;;40.57;22.24;102138.97;5037624;28;45208;-75
2022/07/10 07:48:03;;;;;;;;;2.00;2.00;;;;;40.76;21.86;102134.38;5043605;28;45719;-73
2022/07/10 07:50:34;;;;;;;;;2.75;1.00;;;;;40.86;21.32;102133.72;5031509;28;45455;-81
2022/07/10 07:53:05;;;;;;;;;1.25;1.25;;;;;40.96;21.16;102132.25;5051114;28;45770;-80
2022/07/10 07:55:32;;;;;;;;;0.75;0.75;;;;;41.10;21.35;102135.34;5047806;28;46002;-81
2022/07/10 07:57:59;;;;;;;;;1.50;1.50;;;;;41.23;20.94;102141.72;5036989;28;45938;-80
2022/07/10 08:00:26;;;;;;;;;1.50;1.25;;;;;41.26;20.80;102146.72;5043471;28;44878;-82
2022/07/10 08:02:54;;;;;;;;;1.75;1.00;;;;;41.30;20.40;102141.81;5034846;28;45110;-81
2022/07/10 08:05:21;;;;;;;;;1.50;1.50;;;;;41.27;19.90;102136.03;5041964;28;45611;-81
2022/07/10 08:07:49;;;;;;;;;3.00;2.00;;;;;41.25;20.47;102139.28;5048371;28;45571;-74
2022/07/10 08:10:19;;;;;;;;;1.00;1.00;;;;;41.26;19.89;102142.97;5042194;28;45508;-74
2022/07/10 08:12:46;;;;;;;;;2.00;2.00;;;;;41.11;20.01;102136.19;5028504;28;45647;-73
2022/07/10 08:15:16;;;;;;;;;1.00;1.00;;;;;41.01;20.15;102134.00;5037968;28;45402;-74
2022/07/10 08:17:55;;;;;;;;;2.00;1.00;;;;;41.36;19.96;102132.88;5047033;28;46014;-81
2022/07/10 08:20:22;;;;;;;;;9.67;9.33;;;;;41.79;19.53;102128.56;5058193;28;45543;-73
2022/07/10 08:22:48;;;;;;;;;1.00;1.00;;;;;41.98;18.96;102118.91;5052613;28;45775;-73
2022/07/10 08:25:14;;;;;;;;;2.00;0.75;;;;;42.39;18.60;102131.72;5040646;28;45473;-73
2022/07/10 08:27:40;;;;;;;;;0.75;0.75;;;;;42.45;18.30;102135.91;5043304;28;45835;-80
2022/07/10 08:30:08;;;;;;;;;1.25;1.00;;;;;42.18;18.52;102133.16;5046724;28;45468;-80
2022/07/10 08:32:35;;;;;;;;;1.00;1.00;;;;;41.93;18.59;102121.31;5040635;28;45569;-81
2022/07/10 08:35:01;;;;;;;;;1.00;1.00;;;;;41.80;18.54;102130.22;5050056;28;45445;-73
2022/07/10 08:37:26;;;;;;;;;2.00;2.00;;;;;41.78;18.77;102137.59;5050064;28;45390;-74
2022/07/10 08:39:55;;;;;;;;;2.00;1.25;;;;;41.82;18.34;102132.72;5041316;28;45879;-80
2022/07/10 08:42:21;;;;;;;;;1.00;1.00;;;;;41.90;18.56;102117.16;5046541;28;45511;-73
2022/07/10 08:44:51;;;;;;;;;1.00;1.00;;;;;41.91;18.56;102118.81;5042248;28;45438;-81
2022/07/10 08:47:22;;;;;;;;;1.00;1.00;;;;;41.90;19.08;102122.09;5037575;28;46406;-73
2022/07/10 08:49:47;;;;;;;;;1.00;1.00;;;;;42.31;18.91;102111.47;5035309;28;45685;-73
2022/07/10 08:52:26;;;;;;;;;1.00;1.00;;;;;42.38;18.67;102113.56;5045468;28;45400;-73
2022/07/10 08:54:51;;;;;;;;;1.00;1.00;;;;;42.07;18.60;102114.88;5042167;28;45487;-81
2022/07/10 08:57:17;;;;;;;;;3.00;3.00;;;;;42.05;18.52;102109.50;5057042;28;45786;-73
2022/07/10 08:59:49;;;;;;;;;2.00;2.00;;;;;42.47;18.26;102101.72;5040736;28;45807;-72
2022/07/10 09:02:14;;;;;;;;;2.25;2.25;;;;;42.65;17.95;102096.97;5024730;28;45448;-73
2022/07/10 09:04:41;;;;;;;;;4.50;4.50;;;;;42.93;18.36;102081.09;5040741;28;45501;-75
2022/07/10 09:07:07;;;;;;;;;1.00;1.00;;;;;43.37;17.78;102071.47;5046514;28;45865;-74
2022/07/10 09:09:59;;;;;;;;;2.00;2.00;;;;;43.64;17.94;102088.56;5044782;28;45831;-81
2022/07/10 09:12:25;;;;;;;;;2.00;2.00;;;;;43.53;17.21;102087.66;5035979;28;45348;-78
2022/07/10 09:14:51;;;;;;;;;2.00;2.00;;;;;43.39;17.58;102083.44;5044449;28;45723;-82
2022/07/10 09:17:18;;;;;;;;;2.25;2.25;;;;;43.56;17.56;102078.19;5042026;28;45471;-79
2022/07/10 09:19:44;;;;;;;;;3.50;3.25;;;;;43.29;17.67;102095.78;5028296;28;45478;-80
2022/07/10 09:22:11;;;;;;;;;1.33;1.33;;;;;43.08;17.37;102066.78;5055203;28;45790;-81
2022/07/10 09:24:47;;;;;;;;;2.75;2.75;;;;;42.99;17.32;102085.25;5033912;28;45888;-80
2022/07/10 09:27:15;;;;;;;;;1.50;1.50;;;;;42.50;17.94;102089.38;5033398;28;46352;-74
2022/07/10 09:29:51;;;;;;;;;1.50;1.50;;;;;42.26;18.26;102088.75;5020221;28;45423;-83
2022/07/10 09:32:17;;;;;;;;;1.00;1.00;;;;;42.29;17.71;102084.25;5041443;28;45539;-82
2022/07/10 09:34:45;;;;;;;;;2.00;2.00;;;;;42.44;18.24;102076.56;5040323;28;45898;-81
2022/07/10 09:37:24;;;;;;;;;2.25;1.25;;;;;43.06;17.94;102067.19;5029051;28;47345;-87
2022/07/10 09:40:04;;;;;;;;;3.00;1.00;;;;;43.41;17.83;102079.34;5035814;28;45476;-79
2022/07/10 09:42:43;;;;;;;;;1.00;1.00;;;;;43.31;17.28;102063.59;5039553;28;45775;-75
2022/07/10 09:45:20;;;;;;;;;1.00;1.00;;;;;43.54;16.97;102084.38;5034791;28;45962;-72
2022/07/10 09:47:55;;;;;;;;;2.00;2.00;;;;;42.93;17.72;102066.66;5034069;28;45790;-74
2022/07/10 09:50:22;;;;;;;;;1.00;1.00;;;;;42.88;17.40;102066.19;5032385;28;45453;-81
2022/07/10 09:52:56;;;;;;;;;2.00;1.00;;;;;42.82;17.91;102069.47;5042370;28;46897;-80
2022/07/10 09:55:24;;;;;;;;;3.00;1.25;;;;;42.85;17.29;102068.66;5042610;28;47213;-73
2022/07/10 09:58:02;;;;;;;;;1.00;1.00;;;;;43.06;17.29;102054.78;5053492;28;45965;-75
2022/07/10 10:00:40;;;;;;;;;2.00;1.00;;;;;43.14;16.93;102062.28;5033617;28;45740;-74
2022/07/10 10:03:11;;;;;;;;;1.00;1.00;;;;;42.98;17.53;102063.41;5035608;28;45774;-75
2022/07/10 10:05:42;;;;;;;;;2.00;1.00;;;;;42.84;17.34;102054.66;5037386;28;45516;-73
2022/07/10 10:08:25;;;;;;;;;1.00;1.00;;;;;42.78;17.22;102057.06;5033737;28;46221;-79
2022/07/10 10:11:03;;;;;;;;;1.00;1.00;;;;;42.59;17.56;102032.19;5048548;28;45299;-79
2022/07/10 10:13:30;;;;;;;;;1.00;1.00;;;;;42.37;17.42;102067.84;5044112;28;45489;-74
2022/07/10 10:15:56;;;;;;;;;0.67;0.67;;;;;42.23;17.72;102054.94;5034981;28;45514;-83
2022/07/10 10:18:26;;;;;;;;;1.00;1.00;;;;;42.06;17.67;102050.63;5049139;28;46825;-83
2022/07/10 10:20:55;;;;;;;;;2.00;2.00;;;;;41.91;17.90;102069.00;5021326;28;46068;-78
2022/07/10 10:23:28;;;;;;;;;1.00;1.00;;;;;41.88;17.89;102027.41;5026942;28;45822;-79
2022/07/10 10:25:58;;;;;;;;;1.00;1.00;;;;;41.78;18.03;102019.47;5053143;28;46141;-84
2022/07/10 10:28:25;;;;;;;;;2.00;2.00;;;;;41.94;18.04;102048.06;5050717;28;45625;-81
2022/07/10 10:30:59;;;;;;;;;1.00;1.00;;;;;41.61;18.05;102030.38;5043316;28;45468;-83
2022/07/10 10:33:34;;;;;;;;;1.25;1.25;;;;;41.80;17.95;102043.78;5060356;28;45214;-78
2022/07/10 10:36:02;;;;;;;;;2.00;2.00;;;;;41.34;18.04;102015.22;5026677;28;45690;-78
2022/07/10 10:38:53;;;;;;;;;0.00;0.00;;;;;41.04;19.01;102052.63;5041465;28;45895;-83
2022/07/10 10:41:28;;;;;;;;;0.50;0.50;;;;;40.43;19.26;102049.53;5033825;28;45438;-76
2022/07/10 10:44:13;;;;;;;;;5.67;4.67;;;;;40.07;19.54;102046.03;5057121;28;45426;-78
2022/07/10 10:46:53;;;;;;;;;2.00;2.00;;;;;39.96;20.00;102039.22;5044932;28;44946;-82
2022/07/10 10:49:19;;;;;;;;;1.25;1.25;;;;;39.85;19.79;102039.00;5025063;28;48388;-84
2022/07/10 10:52:06;;;;;;;;;0.00;0.00;;;;;39.88;20.24;102026.75;5076354;28;45555;-83
2022/07/10 10:54:55;;;;;;;;;1.00;1.00;;;;;39.82;20.11;102022.53;5045230;28;45414;-77
2022/07/10 10:57:22;;;;;;;;;0.00;0.00;;;;;39.95;20.14;102008.84;5049624;28;45530;-85
2022/07/10 10:59:52;;;;;;;;;1.00;1.00;;;;;39.73;20.01;102025.66;5048304;28;45444;-77
2022/07/10 11:02:26;;;;;;;;;1.00;1.00;;;;;39.41;20.76;102030.72;5046647;28;45376;-84
2022/07/10 11:05:25;;;;;;;;;2.00;2.00;;;;;39.19;20.51;102024.50;5035961;28;44945;-80
2022/07/10 11:07:55;;;;;;;;;1.00;1.00;;;;;38.93;20.65;101973.50;5032084;28;45862;-81
2022/07/10 11:10:42;;;;;;;;;0.50;0.50;;;;;39.19;20.65;102008.13;5046667;28;45472;-82
2022/07/10 11:13:13;;;;;;;;;1.00;1.00;;;;;38.64;21.35;101981.38;5049069;28;45331;-74
2022/07/10 11:15:51;;;;;;;;;0.50;0.50;;;;;38.44;21.45;101995.66;5056036;28;45361;-75
2022/07/10 11:18:21;;;;;;;;;0.75;0.75;;;;;37.97;21.78;101996.47;5041420;28;45305;-83
2022/07/10 11:20:49;;;;;;;;;0.75;0.75;;;;;37.32;22.56;102006.03;5045376;28;45441;-82
2022/07/10 11:23:43;;;;;;;;;1.00;1.00;;;;;36.34;23.73;101992.69;5047715;28;45572;-73
2022/07/10 11:26:11;;;;;;;;;1.25;1.00;;;;;35.83;24.40;101975.81;5055133;28;45462;-80
2022/07/10 11:28:59;;;;;;;;;1.00;1.00;;;;;35.18;24.66;101994.16;5046535;28;45485;-76
2022/07/10 11:31:27;;;;;;;;;1.25;1.25;;;;;34.41;26.15;102004.84;5042327;28;46318;-83
2022/07/10 11:34:04;;;;;;;;;1.00;1.00;;;;;33.41;27.45;101984.94;5050726;28;45530;-82